Hauptseite
METAR-TAF:

METAR-TAF

Flughäfen :

London Southend Airport

London-Southend, England

Breite: 51-34N, Länge: 000-42E, Höhe: 15 m

Beobachtung

Neuester Wetterbericht von vor 34 Minuten, um 05:50 UTC
Wind 3 kt aus Südost
Temperatur 3°C
Luftfeuchtigkeit 100%
Luftdruck 1009 hPa
Sichtweite: 8000 m

METAR: EGMC 170550Z 14003KT 8000 NSC 03/03 Q1009

Zeit: 06:24 (06:24 UTC)

Prognose

Neuester Wetterbericht von vor 1 Stunde und 20 Minuten, um 05:04 UTC
Gültige Prognose vom 17 um 06 UTC bis 17 um 15 UTC
Wind 3 kt aus Nordost
Sichtweite: 7000 m
Leicht bewölkt in der Höhe von 4000 ft
Wahrscheinlichkeit 30% :
Zeitweise
vom 17 um 06 UTC bis 17 um 09 UTC
Sichtweite: 4000 m
feuchter Dunst
Übergehend zu
vom 17 um 08 UTC bis 17 um 11 UTC
Sichtweite 10 km oder mehr

TAF: EGMC 170504Z 1706/1715 04003KT 7000 FEW040 PROB30 TEMPO 1706/1709 4000 BR BECMG 1708/1711 9999

Wetterbeobachtungen und Prognosen von mehr als 4000 Flughäfen (METAR und TAF Bericht).

Die verfügbaren Stationen werden durch gelbe und rote Markierungen auf der Karte dargestellt.

Führen Sie die Maus auf sie, um den Namen der Station zu sehen.

Darauf klicken, um die Beobachtung von Wetterbeobachtungen und Prognosen zu sehen.

Um die Karte zu ändern : klicken Sie auf den grünen Tasten mit einem schwarzen Kreuz Zum Vergrößern, auf den grünen Button mit einem Gedankenstrich zu verkleinern, oder auf die grünen Pfeile für benachbarte Karten.


METAR-TAF: